KFOK 132153Z 34006KT 10SM CLR 25/09 A3005 RMK AO2 SLP176 T02500089 $

KFOK 131953Z 02009KT 10SM BKN060 26/09 A3006 RMK AO2 SLP180 T02610089 $

KFOK 131853Z 35010G17KT 10SM SCT065 26/08 A3007 RMK AO2 SLP181 T02610083 $

KFOK 131753Z 35011G15KT 10SM FEW060 26/09 A3008 RMK AO2 SLP185 T02560094 10261 20206 58008 $

KFOK 131453Z 34009KT 10SM CLR 24/09 A3010 RMK AO2 SLP193 T02390094 52005 $

KFOK 131253Z 36011KT 10SM CLR 21/13 A3009 RMK AO2 SLP189 T02110128 $

KFOK 131053Z 36005KT 10SM CLR 17/12 A3008 RMK AO2 SLP185 T01720117 $

KFOK 130953Z AUTO 36007KT 10SM CLR 18/12 A3006 RMK AO2 SLP180 T01830117 $